Time;durP1;ratioP1;P1;durP2;ratioP2;P2;SDS_P1;SDS_P2;PMS_P1;PMS_P2;Temp;Humidity;BMP_temperature;BMP_pressure;BME280_temperature;BME280_humidity;BME280_pressure;Samples;Min_cycle;Max_cycle;Signal;HPM_P1;HPM_P2
2021/06/24 00:01:20;;;;;;;;;;;14.70;99.90;;;;;;5095399;28;20260;-71
2021/06/24 00:03:46;;;;;;;;;;;14.70;99.90;;;;;;5096167;28;19916;-71
2021/06/24 00:06:11;;;;;;;;;;;14.70;99.90;;;;;;5096167;28;19908;-71
2021/06/24 00:08:37;;;;;;;;;;;14.70;99.90;;;;;;5095463;28;19908;-71
2021/06/24 00:11:03;;;;;;;;;;;14.80;99.90;;;;;;5096231;28;19989;-71
2021/06/24 00:13:29;;;;;;;;;;;14.80;99.90;;;;;;5096186;28;19908;-70
2021/06/24 00:15:54;;;;;;;;;;;14.80;99.90;;;;;;5095101;28;19912;-71
2021/06/24 00:18:20;;;;;;;;;;;14.70;99.90;;;;;;5096214;28;19943;-71
2021/06/24 00:20:46;;;;;;;;;;;14.70;99.90;;;;;;5095957;28;20360;-71
2021/06/24 00:23:11;;;;;;;;;;;14.70;99.90;;;;;;5095170;28;20298;-71
2021/06/24 00:25:37;;;;;;;;;;;14.70;99.90;;;;;;5096072;28;19908;-71
2021/06/24 00:28:03;;;;;;;;;;;14.70;99.90;;;;;;5095848;28;20316;-71
2021/06/24 00:30:29;;;;;;;;;;;14.70;99.90;;;;;;5094389;28;19916;-71
2021/06/24 00:32:54;;;;;;;;;;;14.70;99.90;;;;;;5095737;28;19912;-71
2021/06/24 00:35:20;;;;;;;;;;;14.70;99.90;;;;;;5095310;28;19909;-71
2021/06/24 00:37:46;;;;;;;;;;;14.70;99.90;;;;;;5094569;28;19916;-71
2021/06/24 00:40:13;;;;;;;;;;;14.70;99.90;;;;;;5095299;28;20291;-72
2021/06/24 00:42:39;;;;;;;;;;;14.70;99.90;;;;;;5095455;28;19915;-71
2021/06/24 00:45:06;;;;;;;;;;;14.70;99.90;;;;;;5094905;28;20013;-72
2021/06/24 00:47:32;;;;;;;;;;;14.70;99.90;;;;;;5095331;28;19917;-72
2021/06/24 00:49:57;;;;;;;;;;;14.70;99.90;;;;;;5095464;28;19915;-72
2021/06/24 00:52:23;;;;;;;;;;;14.80;99.90;;;;;;5094846;28;19931;-71
2021/06/24 00:54:48;;;;;;;;;;;14.70;99.90;;;;;;5095498;28;19999;-71
2021/06/24 00:57:14;;;;;;;;;;;14.70;99.90;;;;;;5094674;28;19919;-72
2021/06/24 00:59:39;;;;;;;;;;;14.70;99.90;;;;;;5095365;28;19917;-71
2021/06/24 01:02:05;;;;;;;;;;;14.70;99.90;;;;;;5095319;28;19908;-72
2021/06/24 01:04:34;;;;;;;;;;;14.70;99.90;;;;;;5094525;28;19908;-72
2021/06/24 01:07:00;;;;;;;;;;;14.70;99.90;;;;;;5095243;28;19908;-71
2021/06/24 01:09:25;;;;;;;;;;;14.70;99.90;;;;;;5095128;28;20225;-71
2021/06/24 01:11:53;;;;;;;;;;;14.70;99.90;;;;;;5094321;28;19908;-71
2021/06/24 01:14:19;;;;;;;;;;;14.70;99.90;;;;;;5094886;28;19909;-71
2021/06/24 01:16:45;;;;;;;;;;;14.70;99.90;;;;;;5094919;28;19912;-72
2021/06/24 01:19:19;;;;;;;;;;;14.80;99.90;;;;;;5093950;28;19915;-71
2021/06/24 01:21:45;;;;;;;;;;;14.80;99.90;;;;;;5094597;28;19923;-71
2021/06/24 01:24:11;;;;;;;;;;;14.80;99.90;;;;;;5094642;28;19908;-71
2021/06/24 01:26:38;;;;;;;;;;;14.70;99.90;;;;;;5094051;28;19923;-72
2021/06/24 01:29:04;;;;;;;;;;;14.70;99.90;;;;;;5094712;28;19978;-72
2021/06/24 01:31:29;;;;;;;;;;;14.70;99.90;;;;;;5094839;28;20360;-70
2021/06/24 01:33:55;;;;;;;;;;;14.70;99.90;;;;;;5093543;28;19957;-71
2021/06/24 01:36:20;;;;;;;;;;;14.70;99.90;;;;;;5094631;28;20402;-71
2021/06/24 01:38:46;;;;;;;;;;;14.70;99.90;;;;;;5094591;28;19908;-71
2021/06/24 01:41:12;;;;;;;;;;;14.60;99.90;;;;;;5093622;28;19916;-71
2021/06/24 01:43:37;;;;;;;;;;;14.60;99.90;;;;;;5093100;28;19920;-71
2021/06/24 01:46:03;;;;;;;;;;;14.60;99.90;;;;;;5094157;28;20422;-71
2021/06/24 01:48:29;;;;;;;;;;;14.60;99.90;;;;;;5093375;28;20006;-71
2021/06/24 01:50:55;;;;;;;;;;;14.60;99.90;;;;;;5094101;28;19908;-71
2021/06/24 01:53:21;;;;;;;;;;;14.50;99.90;;;;;;5093454;28;19915;-71
2021/06/24 01:55:46;;;;;;;;;;;14.50;99.90;;;;;;5094426;28;19908;-71
2021/06/24 01:58:19;;;;;;;;;;;14.50;99.90;;;;;;5094117;28;20050;-72
2021/06/24 02:00:46;;;;;;;;;;;14.40;99.90;;;;;;5093183;28;19980;-71
2021/06/24 02:03:12;;;;;;;;;;;14.40;99.90;;;;;;5093953;28;19910;-72
2021/06/24 02:05:37;;;;;;;;;;;14.40;99.90;;;;;;5094151;28;20003;-71
2021/06/24 02:08:03;;;;;;;;;;;14.40;99.90;;;;;;5093203;28;19958;-71
2021/06/24 02:10:28;;;;;;;;;;;14.40;99.90;;;;;;5093860;28;19908;-71
2021/06/24 02:12:54;;;;;;;;;;;14.40;99.90;;;;;;5093944;28;20066;-71
2021/06/24 02:15:20;;;;;;;;;;;14.40;99.90;;;;;;5093012;28;19908;-71
2021/06/24 02:17:45;;;;;;;;;;;14.40;99.90;;;;;;5093837;28;19918;-71
2021/06/24 02:20:12;;;;;;;;;;;14.40;99.90;;;;;;5093734;28;19955;-71
2021/06/24 02:22:39;;;;;;;;;;;14.40;99.90;;;;;;5093120;28;20365;-71
2021/06/24 02:25:05;;;;;;;;;;;14.30;99.90;;;;;;5093728;28;19912;-71
2021/06/24 02:27:31;;;;;;;;;;;14.30;99.90;;;;;;5093824;28;19912;-71
2021/06/24 02:29:56;;;;;;;;;;;14.30;99.90;;;;;;5092832;28;19994;-71
2021/06/24 02:32:21;;;;;;;;;;;14.30;99.90;;;;;;5093640;28;20441;-71
2021/06/24 02:34:47;;;;;;;;;;;14.20;99.90;;;;;;5093843;28;19908;-71
2021/06/24 02:37:13;;;;;;;;;;;14.20;99.90;;;;;;5092926;28;20360;-71
2021/06/24 02:39:38;;;;;;;;;;;14.20;99.90;;;;;;5093523;28;19920;-72
2021/06/24 02:42:07;;;;;;;;;;;14.20;99.90;;;;;;5093636;28;20302;-71
2021/06/24 02:44:32;;;;;;;;;;;14.10;99.90;;;;;;5092416;28;19939;-70
2021/06/24 02:46:58;;;;;;;;;;;14.20;99.90;;;;;;5093426;28;19916;-71
2021/06/24 02:49:23;;;;;;;;;;;14.10;99.90;;;;;;5092954;28;19909;-71
2021/06/24 02:51:49;;;;;;;;;;;14.10;99.90;;;;;;5092278;28;19915;-71
2021/06/24 02:54:15;;;;;;;;;;;14.10;99.90;;;;;;5092829;28;19912;-71
2021/06/24 02:56:40;;;;;;;;;;;14.10;99.90;;;;;;5092431;28;19912;-71
2021/06/24 02:59:06;;;;;;;;;;;14.10;99.90;;;;;;5093098;28;19916;-70
2021/06/24 03:01:32;;;;;;;;;;;14.10;99.90;;;;;;5093169;28;19965;-71
2021/06/24 03:03:57;;;;;;;;;;;14.10;99.90;;;;;;5092702;28;19923;-70
2021/06/24 03:06:23;;;;;;;;;;;14.10;99.90;;;;;;5093173;28;19962;-72
2021/06/24 03:08:48;;;;;;;;;;;14.10;99.90;;;;;;5093314;28;19946;-72
2021/06/24 03:11:15;;;;;;;;;;;14.10;99.90;;;;;;5092389;28;19908;-71
2021/06/24 03:13:40;;;;;;;;;;;14.00;99.90;;;;;;5093043;28;19915;-72
2021/06/24 03:16:06;;;;;;;;;;;14.00;99.90;;;;;;5093117;28;20010;-72
2021/06/24 03:18:32;;;;;;;;;;;14.00;99.90;;;;;;5092519;28;20284;-72
2021/06/24 03:20:57;;;;;;;;;;;14.00;99.90;;;;;;5092835;28;19916;-72
2021/06/24 03:23:23;;;;;;;;;;;14.00;99.90;;;;;;5093035;28;19915;-72
2021/06/24 03:25:48;;;;;;;;;;;14.00;99.90;;;;;;5092210;28;19909;-72
2021/06/24 03:28:14;;;;;;;;;;;13.90;99.90;;;;;;5092992;28;19935;-72
2021/06/24 03:30:41;;;;;;;;;;;13.90;99.90;;;;;;5092943;28;19938;-72
2021/06/24 03:33:07;;;;;;;;;;;14.00;99.90;;;;;;5092186;28;19962;-72
2021/06/24 03:35:32;;;;;;;;;;;13.90;99.90;;;;;;5093252;28;19912;-72
2021/06/24 03:37:58;;;;;;;;;;;13.90;99.90;;;;;;5092845;28;20387;-72
2021/06/24 03:40:23;;;;;;;;;;;13.90;99.90;;;;;;5091981;28;19916;-72
2021/06/24 03:42:51;;;;;;;;;;;13.90;99.90;;;;;;5092818;28;19930;-72
2021/06/24 03:45:17;;;;;;;;;;;13.90;99.90;;;;;;5092485;28;20311;-71
2021/06/24 03:47:42;;;;;;;;;;;13.90;99.90;;;;;;5092206;28;19912;-71
2021/06/24 03:50:09;;;;;;;;;;;13.90;99.90;;;;;;5092897;28;20313;-72
2021/06/24 03:52:35;;;;;;;;;;;13.90;99.90;;;;;;5092513;28;19930;-71
2021/06/24 03:55:00;;;;;;;;;;;13.90;99.90;;;;;;5091917;28;19998;-71
2021/06/24 03:57:25;;;;;;;;;;;13.90;99.90;;;;;;5092396;28;19912;-71
2021/06/24 03:59:52;;;;;;;;;;;13.90;99.90;;;;;;5092682;28;19920;-71
2021/06/24 04:02:17;;;;;;;;;;;13.80;99.90;;;;;;5092165;28;19914;-71
2021/06/24 04:04:43;;;;;;;;;;;13.80;99.90;;;;;;5092832;28;19908;-71
2021/06/24 04:07:08;;;;;;;;;;;13.90;99.90;;;;;;5094269;28;19909;-72
2021/06/24 04:09:34;;;;;;;;;;;13.90;99.90;;;;;;5096128;28;19985;-71
2021/06/24 04:11:59;;;;;;;;;;;13.90;99.90;;;;;;5095845;28;19909;-71
2021/06/24 04:14:25;;;;;;;;;;;13.90;99.90;;;;;;5095390;28;20383;-72
2021/06/24 04:16:50;;;;;;;;;;;13.90;99.90;;;;;;5096271;28;19908;-72
2021/06/24 04:19:16;;;;;;;;;;;13.90;99.90;;;;;;5095923;28;19908;-72
2021/06/24 04:21:42;;;;;;;;;;;13.90;99.90;;;;;;5095333;28;19924;-72
2021/06/24 04:24:07;;;;;;;;;;;13.90;99.90;;;;;;5095937;28;19908;-71
2021/06/24 04:26:33;;;;;;;;;;;13.90;99.90;;;;;;5095664;28;19915;-71
2021/06/24 04:28:58;;;;;;;;;;;13.90;99.90;;;;;;5095051;28;19980;-71
2021/06/24 04:31:24;;;;;;;;;;;13.90;99.90;;;;;;5095906;28;20370;-72
2021/06/24 04:33:49;;;;;;;;;;;13.90;99.90;;;;;;5095663;28;19908;-72
2021/06/24 04:36:15;;;;;;;;;;;13.90;99.90;;;;;;5095028;28;19912;-71
2021/06/24 04:38:40;;;;;;;;;;;13.90;99.90;;;;;;5095693;28;19919;-71
2021/06/24 04:41:06;;;;;;;;;;;13.90;99.90;;;;;;5095447;28;19920;-71
2021/06/24 04:43:32;;;;;;;;;;;13.90;99.90;;;;;;5094492;28;20363;-71
2021/06/24 04:45:57;;;;;;;;;;;13.90;99.90;;;;;;5095517;28;19928;-71
2021/06/24 04:48:22;;;;;;;;;;;13.90;99.90;;;;;;5095256;28;19935;-71
2021/06/24 04:50:48;;;;;;;;;;;14.00;99.90;;;;;;5095015;28;19908;-71
2021/06/24 04:53:14;;;;;;;;;;;14.00;99.90;;;;;;5095338;28;20386;-71
2021/06/24 04:55:39;;;;;;;;;;;14.00;99.90;;;;;;5095225;28;19908;-71
2021/06/24 04:58:05;;;;;;;;;;;14.00;99.90;;;;;;5094377;28;19999;-71
2021/06/24 05:00:31;;;;;;;;;;;14.00;99.90;;;;;;5095027;28;20364;-71
2021/06/24 05:02:57;;;;;;;;;;;14.00;99.90;;;;;;5095264;28;19915;-71
2021/06/24 05:05:22;;;;;;;;;;;14.00;99.90;;;;;;5094482;28;19908;-71
2021/06/24 05:07:47;;;;;;;;;;;14.10;99.90;;;;;;5095105;28;19915;-71
2021/06/24 05:10:14;;;;;;;;;;;14.10;99.90;;;;;;5094767;28;19999;-72
2021/06/24 05:12:39;;;;;;;;;;;14.10;99.90;;;;;;5094892;28;20002;-72
2021/06/24 05:15:05;;;;;;;;;;;14.10;99.90;;;;;;5095012;28;19947;-72
2021/06/24 05:17:31;;;;;;;;;;;14.20;99.90;;;;;;5093968;28;19933;-71
2021/06/24 05:19:57;;;;;;;;;;;14.20;99.90;;;;;;5094883;28;20388;-72
2021/06/24 05:22:23;;;;;;;;;;;14.10;99.90;;;;;;5094655;28;19909;-72
2021/06/24 05:24:48;;;;;;;;;;;14.20;99.90;;;;;;5093989;28;19908;-71
2021/06/24 05:27:14;;;;;;;;;;;14.20;99.90;;;;;;5094811;28;20338;-72
2021/06/24 05:29:39;;;;;;;;;;;14.20;99.90;;;;;;5094767;28;20336;-72
2021/06/24 05:32:05;;;;;;;;;;;14.20;99.90;;;;;;5093993;28;19912;-72
2021/06/24 05:34:32;;;;;;;;;;;14.30;99.90;;;;;;5094452;28;20037;-73
2021/06/24 05:36:58;;;;;;;;;;;14.30;99.90;;;;;;5094607;28;19912;-71
2021/06/24 05:39:23;;;;;;;;;;;14.30;99.90;;;;;;5093782;28;20256;-72
2021/06/24 05:41:49;;;;;;;;;;;14.40;99.90;;;;;;5094450;28;19912;-71
2021/06/24 05:44:14;;;;;;;;;;;14.40;99.90;;;;;;5093931;28;20388;-71
2021/06/24 05:46:40;;;;;;;;;;;14.50;99.90;;;;;;5093718;28;19908;-72
2021/06/24 05:49:05;;;;;;;;;;;14.40;99.90;;;;;;5094232;28;19908;-71
2021/06/24 05:51:30;;;;;;;;;;;14.50;99.90;;;;;;5094260;28;19908;-71
2021/06/24 05:53:56;;;;;;;;;;;14.50;99.90;;;;;;5093298;28;19908;-72
2021/06/24 05:56:23;;;;;;;;;;;14.60;99.90;;;;;;5093886;28;20302;-72
2021/06/24 05:58:49;;;;;;;;;;;14.60;99.90;;;;;;5094857;28;19909;-71
2021/06/24 06:01:16;;;;;;;;;;;14.70;99.90;;;;;;5093409;28;19920;-71
2021/06/24 06:03:42;;;;;;;;;;;14.70;99.90;;;;;;5093747;28;19908;-73
2021/06/24 06:06:07;;;;;;;;;;;14.70;99.90;;;;;;5094140;28;19908;-72
2021/06/24 06:08:33;;;;;;;;;;;14.80;99.90;;;;;;5093161;28;19908;-71
2021/06/24 06:10:58;;;;;;;;;;;14.90;99.90;;;;;;5094058;28;20353;-72
2021/06/24 06:13:23;;;;;;;;;;;15.00;99.90;;;;;;5093941;28;19908;-72
2021/06/24 06:15:49;;;;;;;;;;;15.00;99.90;;;;;;5093205;28;19978;-72
2021/06/24 06:18:16;;;;;;;;;;;15.10;99.90;;;;;;5094211;28;19912;-71
2021/06/24 06:20:44;;;;;;;;;;;15.10;99.90;;;;;;5093075;28;20018;-71
2021/06/24 06:23:10;;;;;;;;;;;15.20;99.90;;;;;;5093521;28;20431;-72
2021/06/24 06:25:35;;;;;;;;;;;15.40;99.90;;;;;;5093813;28;19981;-72
2021/06/24 06:28:01;;;;;;;;;;;15.40;99.90;;;;;;5092452;28;19916;-72
2021/06/24 06:30:26;;;;;;;;;;;15.50;99.90;;;;;;5093544;28;19908;-72
2021/06/24 06:32:52;;;;;;;;;;;15.50;99.90;;;;;;5093711;28;19909;-72
2021/06/24 06:35:18;;;;;;;;;;;15.60;99.90;;;;;;5092833;28;19908;-71
2021/06/24 06:37:43;;;;;;;;;;;15.60;99.90;;;;;;5093557;28;19912;-73
2021/06/24 06:40:09;;;;;;;;;;;15.70;99.90;;;;;;5093356;28;19919;-71
2021/06/24 06:42:34;;;;;;;;;;;15.60;99.90;;;;;;5092534;28;19912;-72
2021/06/24 06:45:00;;;;;;;;;;;15.60;99.90;;;;;;5093242;28;19974;-72
2021/06/24 06:47:25;;;;;;;;;;;15.70;99.90;;;;;;5093355;28;20364;-71
2021/06/24 06:49:51;;;;;;;;;;;15.80;99.90;;;;;;5092439;28;19954;-71
2021/06/24 06:52:16;;;;;;;;;;;15.80;99.90;;;;;;5093286;28;19947;-71
2021/06/24 06:54:42;;;;;;;;;;;15.80;99.90;;;;;;5093253;28;19999;-71
2021/06/24 06:57:07;;;;;;;;;;;15.80;99.90;;;;;;5092316;28;19951;-71
2021/06/24 06:59:35;;;;;;;;;;;15.90;99.90;;;;;;5093322;28;19908;-71
2021/06/24 07:02:00;;;;;;;;;;;15.90;99.90;;;;;;5093097;28;19965;-71
2021/06/24 07:04:26;;;;;;;;;;;16.00;99.90;;;;;;5092177;28;19920;-71
2021/06/24 07:06:51;;;;;;;;;;;16.00;99.90;;;;;;5093097;28;19909;-72
2021/06/24 07:09:18;;;;;;;;;;;16.10;99.90;;;;;;5093108;28;19912;-72
2021/06/24 07:11:43;;;;;;;;;;;16.20;99.90;;;;;;5092252;28;19908;-71
2021/06/24 07:14:09;;;;;;;;;;;16.30;99.90;;;;;;5093134;28;19951;-71
2021/06/24 07:16:34;;;;;;;;;;;16.50;99.90;;;;;;5092927;28;20252;-71
2021/06/24 07:19:00;;;;;;;;;;;16.60;99.90;;;;;;5092423;28;20014;-72
2021/06/24 07:21:25;;;;;;;;;;;16.80;99.90;;;;;;5093213;28;19916;-71
2021/06/24 07:23:51;;;;;;;;;;;16.90;99.90;;;;;;5092585;28;19908;-72
2021/06/24 07:26:16;;;;;;;;;;;16.90;99.90;;;;;;5092844;28;19916;-71
2021/06/24 07:28:42;;;;;;;;;;;17.00;99.90;;;;;;5093101;28;19909;-71
2021/06/24 07:31:08;;;;;;;;;;;17.00;99.90;;;;;;5090809;28;19916;-71
2021/06/24 07:33:34;;;;;;;;;;;17.10;99.90;;;;;;5092881;28;20378;-71
2021/06/24 07:36:00;;;;;;;;;;;17.00;99.90;;;;;;5092943;28;19931;-72
2021/06/24 07:38:26;;;;;;;;;;;17.10;99.90;;;;;;5092270;28;20352;-70
2021/06/24 07:40:51;;;;;;;;;;;17.20;99.90;;;;;;5095189;28;19924;-71
2021/06/24 07:43:17;;;;;;;;;;;17.20;99.90;;;;;;5096501;28;19908;-71
2021/06/24 07:45:42;;;;;;;;;;;17.10;99.90;;;;;;5095718;28;19999;-71
2021/06/24 07:48:08;;;;;;;;;;;17.20;99.90;;;;;;5096466;28;20322;-72
2021/06/24 07:50:34;;;;;;;;;;;17.30;99.90;;;;;;5096706;28;19908;-72
2021/06/24 07:53:00;;;;;;;;;;;17.30;99.90;;;;;;5095736;28;19990;-72
2021/06/24 07:55:33;;;;;;;;;;;17.30;99.90;;;;;;5096287;28;20383;-72
2021/06/24 07:57:59;;;;;;;;;;;17.30;99.90;;;;;;5096540;28;19915;-72
2021/06/24 08:00:25;;;;;;;;;;;17.30;99.90;;;;;;5095834;28;19916;-72
2021/06/24 08:02:51;;;;;;;;;;;17.50;99.90;;;;;;5096230;28;20360;-72
2021/06/24 08:05:17;;;;;;;;;;;17.50;99.90;;;;;;5096393;28;19930;-72
2021/06/24 08:07:45;;;;;;;;;;;17.50;99.90;;;;;;5095323;28;19908;-72
2021/06/24 08:10:10;;;;;;;;;;;17.60;99.90;;;;;;5096088;28;20306;-72
2021/06/24 08:12:36;;;;;;;;;;;17.70;99.90;;;;;;5096224;28;19908;-71
2021/06/24 08:15:02;;;;;;;;;;;17.70;99.90;;;;;;5095474;28;19911;-71
2021/06/24 08:17:27;;;;;;;;;;;17.70;99.90;;;;;;5096112;28;19908;-71
2021/06/24 08:19:52;;;;;;;;;;;17.70;99.90;;;;;;5095900;28;19923;-72
2021/06/24 08:22:18;;;;;;;;;;;17.70;99.90;;;;;;5095137;28;20375;-71
2021/06/24 08:24:43;;;;;;;;;;;17.70;99.90;;;;;;5095792;28;19908;-72
2021/06/24 08:27:12;;;;;;;;;;;17.70;99.90;;;;;;5094310;28;19987;-72
2021/06/24 08:29:37;;;;;;;;;;;17.80;99.90;;;;;;5095844;28;19908;-73
2021/06/24 08:32:03;;;;;;;;;;;17.80;99.90;;;;;;5095825;28;20291;-73
2021/06/24 08:34:28;;;;;;;;;;;17.70;99.90;;;;;;5095268;28;19970;-71
2021/06/24 08:36:54;;;;;;;;;;;17.80;99.90;;;;;;5095508;28;19916;-72
2021/06/24 08:39:20;;;;;;;;;;;17.70;99.90;;;;;;5095761;28;19916;-72
2021/06/24 08:41:48;;;;;;;;;;;17.70;99.90;;;;;;5094944;28;19916;-71
2021/06/24 08:44:13;;;;;;;;;;;17.70;99.90;;;;;;5095249;28;19970;-71
2021/06/24 08:46:39;;;;;;;;;;;17.80;99.90;;;;;;5095362;28;20316;-72
2021/06/24 08:49:05;;;;;;;;;;;18.00;99.90;;;;;;5094714;28;19912;-72
2021/06/24 08:51:31;;;;;;;;;;;18.10;99.90;;;;;;5094604;28;20307;-72
2021/06/24 08:53:58;;;;;;;;;;;18.40;99.90;;;;;;5095449;28;19943;-72
2021/06/24 08:56:23;;;;;;;;;;;18.40;99.90;;;;;;5094441;28;19908;-72
2021/06/24 08:58:52;;;;;;;;;;;18.50;99.90;;;;;;5095872;28;19909;-71
2021/06/24 09:01:18;;;;;;;;;;;18.60;99.90;;;;;;5095192;28;19927;-72
2021/06/24 09:03:45;;;;;;;;;;;18.60;99.90;;;;;;5094458;28;19909;-72
2021/06/24 09:06:10;;;;;;;;;;;18.60;99.90;;;;;;5095234;28;19919;-72
2021/06/24 09:08:39;;;;;;;;;;;18.70;99.90;;;;;;5095268;28;19908;-72
2021/06/24 09:11:17;;;;;;;;;;;18.80;99.90;;;;;;5094297;28;19970;-72
2021/06/24 09:13:44;;;;;;;;;;;18.80;99.90;;;;;;5095135;28;19954;-73
2021/06/24 09:16:26;;;;;;;;;;;18.90;99.90;;;;;;5095029;28;19947;-72
2021/06/24 09:19:11;;;;;;;;;;;18.90;99.90;;;;;;5095026;28;19909;-72
2021/06/24 09:21:36;;;;;;;;;;;18.70;99.70;;;;;;5094773;28;20394;-71
2021/06/24 09:24:02;;;;;;;;;;;18.50;99.90;;;;;;5094008;28;19999;-71
2021/06/24 09:26:32;;;;;;;;;;;18.50;99.90;;;;;;5094382;28;19969;-71
2021/06/24 09:28:58;;;;;;;;;;;18.50;99.90;;;;;;5094631;28;19991;-72
2021/06/24 09:31:28;;;;;;;;;;;18.50;99.90;;;;;;5093907;28;19908;-72
2021/06/24 09:33:55;;;;;;;;;;;18.50;99.90;;;;;;5094388;28;20439;-72
2021/06/24 09:36:30;;;;;;;;;;;18.50;99.90;;;;;;5094653;28;19991;-72
2021/06/24 09:38:55;;;;;;;;;;;18.80;99.90;;;;;;5093772;28;19912;-72
2021/06/24 09:41:21;;;;;;;;;;;19.00;99.90;;;;;;5094268;28;19916;-71
2021/06/24 09:43:47;;;;;;;;;;;18.90;99.90;;;;;;5094304;28;19919;-71
2021/06/24 09:46:14;;;;;;;;;;;18.90;99.90;;;;;;5093073;28;19920;-71
2021/06/24 09:48:51;;;;;;;;;;;18.90;99.90;;;;;;5094160;28;19918;-72
2021/06/24 09:51:22;;;;;;;;;;;18.80;99.90;;;;;;5094191;28;19915;-71
2021/06/24 09:53:48;;;;;;;;;;;18.90;99.90;;;;;;5093346;28;19915;-72
2021/06/24 09:56:27;;;;;;;;;;;18.80;99.90;;;;;;5094039;28;19908;-71
2021/06/24 09:58:53;;;;;;;;;;;18.80;99.90;;;;;;5093255;28;19908;-72
2021/06/24 10:01:29;;;;;;;;;;;18.90;99.90;;;;;;5093979;28;19923;-72
2021/06/24 10:03:58;;;;;;;;;;;19.00;99.90;;;;;;5093146;28;20360;-72
2021/06/24 10:06:24;;;;;;;;;;;18.90;99.90;;;;;;5093026;28;19908;-72
2021/06/24 10:08:50;;;;;;;;;;;18.80;99.90;;;;;;5094233;28;19962;-72
2021/06/24 10:11:16;;;;;;;;;;;18.70;99.90;;;;;;5094062;28;19908;-72
2021/06/24 10:13:41;;;;;;;;;;;18.70;99.90;;;;;;5093073;28;19915;-71
2021/06/24 10:16:07;;;;;;;;;;;18.90;99.90;;;;;;5094045;28;19908;-72
2021/06/24 10:18:34;;;;;;;;;;;19.00;99.90;;;;;;5093875;28;20248;-72
2021/06/24 10:21:00;;;;;;;;;;;19.10;99.90;;;;;;5092823;28;19961;-74
2021/06/24 10:23:26;;;;;;;;;;;19.30;99.90;;;;;;5093517;28;19912;-72
2021/06/24 10:25:51;;;;;;;;;;;19.40;99.60;;;;;;5093569;28;20348;-71
2021/06/24 10:28:17;;;;;;;;;;;19.40;99.90;;;;;;5092947;28;19908;-72
2021/06/24 10:30:43;;;;;;;;;;;19.40;99.60;;;;;;5093814;28;19909;-72
2021/06/24 10:33:15;;;;;;;;;;;19.50;99.90;;;;;;5093541;28;20356;-71
2021/06/24 10:35:42;;;;;;;;;;;19.50;99.70;;;;;;5092587;28;19908;-72
2021/06/24 10:38:08;;;;;;;;;;;19.70;99.30;;;;;;5093580;28;19908;-72
2021/06/24 10:40:38;;;;;;;;;;;20.00;98.80;;;;;;5093475;28;20053;-72
2021/06/24 10:43:08;;;;;;;;;;;20.10;98.70;;;;;;5092722;28;19915;-72
2021/06/24 10:45:34;;;;;;;;;;;20.30;98.60;;;;;;5093278;28;20283;-72
2021/06/24 10:48:19;;;;;;;;;;;20.50;97.90;;;;;;5092785;28;20281;-72
2021/06/24 10:50:44;;;;;;;;;;;20.50;97.60;;;;;;5093170;28;20009;-73
2021/06/24 10:53:10;;;;;;;;;;;20.40;97.30;;;;;;5093374;28;19911;-72
2021/06/24 10:55:40;;;;;;;;;;;20.40;97.20;;;;;;5092622;28;19954;-72
2021/06/24 10:58:11;;;;;;;;;;;20.40;97.70;;;;;;5093403;28;20386;-72
2021/06/24 11:00:37;;;;;;;;;;;20.50;97.60;;;;;;5092976;28;20011;-73
2021/06/24 11:03:07;;;;;;;;;;;20.70;97.20;;;;;;5092463;28;19934;-73
2021/06/24 11:05:33;;;;;;;;;;;21.00;97.40;;;;;;5093362;28;19916;-72
2021/06/24 11:07:58;;;;;;;;;;;21.20;97.00;;;;;;5093227;28;19912;-74
2021/06/24 11:10:26;;;;;;;;;;;21.40;96.40;;;;;;5092507;28;19912;-71
2021/06/24 11:12:52;;;;;;;;;;;21.10;95.00;;;;;;5093271;28;19912;-72
2021/06/24 11:15:36;;;;;;;;;;;21.10;95.80;;;;;;5094764;28;20348;-72
2021/06/24 11:18:02;;;;;;;;;;;21.10;95.30;;;;;;5096542;28;19908;-73
2021/06/24 11:20:41;;;;;;;;;;;21.20;95.10;;;;;;5097125;28;19917;-72
2021/06/24 11:23:26;;;;;;;;;;;21.10;95.10;;;;;;5096540;28;19988;-72
2021/06/24 11:26:06;;;;;;;;;;;21.30;94.60;;;;;;5096968;28;19940;-72
2021/06/24 11:31:18;;;;;;;;;;;21.60;94.70;;;;;;5096197;28;19939;-73
2021/06/24 11:34:06;;;;;;;;;;;21.80;94.60;;;;;;5096865;28;19915;-72
2021/06/24 11:36:31;;;;;;;;;;;21.60;94.20;;;;;;5096842;28;20331;-73
2021/06/24 11:38:57;;;;;;;;;;;21.70;95.10;;;;;;5096168;28;19908;-72
2021/06/24 11:41:23;;;;;;;;;;;21.70;94.10;;;;;;5096577;28;19923;-72
2021/06/24 11:44:02;;;;;;;;;;;21.70;94.60;;;;;;5096771;28;19908;-72
2021/06/24 11:46:29;;;;;;;;;;;21.80;94.30;;;;;;5095497;28;19989;-72
2021/06/24 11:49:27;;;;;;;;;;;21.60;94.50;;;;;;5096671;28;19908;-71
2021/06/24 12:05:06;;;;;;;;;;;21.70;94.40;;;;;;5096394;28;19924;-72
2021/06/24 12:07:32;;;;;;;;;;;21.40;94.00;;;;;;5095677;28;20367;-72
2021/06/24 12:09:58;;;;;;;;;;;21.40;94.70;;;;;;5096339;28;19954;-72
2021/06/24 12:12:26;;;;;;;;;;;21.40;94.60;;;;;;5095442;28;20011;-73
2021/06/24 12:14:57;;;;;;;;;;;21.50;95.20;;;;;;5096216;28;19946;-73
2021/06/24 12:17:23;;;;;;;;;;;21.20;95.00;;;;;;5096058;28;20325;-71
2021/06/24 12:19:52;;;;;;;;;;;21.30;94.50;;;;;;5095080;28;19912;-71
2021/06/24 12:22:18;;;;;;;;;;;21.50;93.90;;;;;;5095996;28;19912;-71
2021/06/24 12:24:44;;;;;;;;;;;21.70;94.10;;;;;;5095684;28;19908;-72
2021/06/24 12:27:21;;;;;;;;;;;22.90;93.80;;;;;;5094143;28;19915;-73
2021/06/24 12:29:48;;;;;;;;;;;21.90;93.50;;;;;;5095741;28;19915;-72
2021/06/24 12:32:15;;;;;;;;;;;22.20;93.30;;;;;;5095837;28;19908;-72
2021/06/24 12:34:40;;;;;;;;;;;22.60;92.90;;;;;;5094886;28;20387;-72
2021/06/24 12:37:06;;;;;;;;;;;22.90;92.50;;;;;;5094293;28;19908;-73
2021/06/24 12:39:31;;;;;;;;;;;23.30;91.80;;;;;;5095857;28;19913;-72
2021/06/24 12:41:57;;;;;;;;;;;23.70;91.60;;;;;;5095136;28;20272;-72
2021/06/24 12:44:22;;;;;;;;;;;23.80;90.80;;;;;;5095520;28;19908;-71
2021/06/24 12:46:48;;;;;;;;;;;23.90;90.50;;;;;;5095360;28;20276;-72
2021/06/24 12:49:14;;;;;;;;;;;23.80;90.60;;;;;;5094910;28;20355;-71
2021/06/24 12:51:40;;;;;;;;;;;23.70;90.40;;;;;;5095624;28;19908;-72
2021/06/24 12:54:19;;;;;;;;;;;23.60;89.60;;;;;;5095480;28;19958;-72
2021/06/24 12:56:45;;;;;;;;;;;23.50;90.10;;;;;;5094581;28;19937;-72
2021/06/24 12:59:18;;;;;;;;;;;23.50;90.50;;;;;;5095351;28;19915;-72
2021/06/24 13:01:44;;;;;;;;;;;23.20;90.20;;;;;;5094493;28;20106;-72
2021/06/24 13:04:11;;;;;;;;;;;23.00;90.60;;;;;;5095348;28;20423;-72
2021/06/24 13:06:46;;;;;;;;;;;23.00;90.70;;;;;;5095109;28;19951;-73
2021/06/24 13:09:15;;;;;;;;;;;23.00;91.10;;;;;;5094315;28;19909;-72
2021/06/24 13:11:43;;;;;;;;;;;23.20;90.70;;;;;;5095136;28;19919;-72
2021/06/24 13:14:15;;;;;;;;;;;23.30;90.50;;;;;;5095007;28;19912;-72
2021/06/24 13:17:02;;;;;;;;;;;23.50;90.30;;;;;;5094319;28;19911;-71
2021/06/24 13:19:33;;;;;;;;;;;23.60;90.20;;;;;;5094470;28;19954;-71
2021/06/24 13:22:21;;;;;;;;;;;23.70;88.60;;;;;;5094624;28;19989;-72
2021/06/24 13:24:46;;;;;;;;;;;23.50;87.20;;;;;;5093812;28;19934;-72
2021/06/24 13:27:13;;;;;;;;;;;22.90;88.90;;;;;;5094581;28;19912;-73
2021/06/24 13:29:41;;;;;;;;;;;22.90;90.40;;;;;;5094146;28;19915;-73
2021/06/24 13:32:08;;;;;;;;;;;22.90;90.90;;;;;;5094541;28;20038;-73
2021/06/24 13:34:36;;;;;;;;;;;22.90;90.30;;;;;;5094593;28;19919;-73
2021/06/24 13:37:19;;;;;;;;;;;23.00;90.70;;;;;;5093713;28;19913;-72
2021/06/24 13:39:45;;;;;;;;;;;23.10;90.40;;;;;;5094452;28;19931;-72
2021/06/24 13:42:13;;;;;;;;;;;23.10;90.00;;;;;;5093877;28;20205;-73
2021/06/24 13:44:38;;;;;;;;;;;23.20;89.30;;;;;;5093702;28;20014;-72
2021/06/24 13:47:04;;;;;;;;;;;23.10;89.40;;;;;;5094152;28;20458;-72
2021/06/24 13:49:29;;;;;;;;;;;23.20;89.90;;;;;;5094491;28;19965;-72
2021/06/24 13:51:57;;;;;;;;;;;23.30;90.00;;;;;;5093403;28;19912;-72
2021/06/24 13:54:23;;;;;;;;;;;23.50;88.80;;;;;;5094265;28;19908;-71
2021/06/24 13:56:50;;;;;;;;;;;23.30;89.20;;;;;;5094059;28;19908;-71
2021/06/24 13:59:16;;;;;;;;;;;23.30;89.50;;;;;;5093153;28;19912;-72
2021/06/24 14:01:42;;;;;;;;;;;23.30;89.50;;;;;;5094075;28;20324;-72
2021/06/24 14:04:08;;;;;;;;;;;23.40;89.00;;;;;;5093797;28;19997;-72
2021/06/24 14:06:36;;;;;;;;;;;23.50;89.70;;;;;;5093017;28;19924;-71
2021/06/24 14:09:06;;;;;;;;;;;23.60;88.30;;;;;;5093951;28;19908;-71
2021/06/24 14:11:31;;;;;;;;;;;23.70;88.60;;;;;;5093919;28;20284;-71
2021/06/24 14:13:56;;;;;;;;;;;23.90;88.20;;;;;;5092950;28;19909;-73
2021/06/24 14:16:22;;;;;;;;;;;24.30;87.70;;;;;;5093745;28;20012;-72
2021/06/24 14:18:47;;;;;;;;;;;24.30;85.60;;;;;;5093493;28;19909;-71
2021/06/24 14:21:14;;;;;;;;;;;24.30;86.10;;;;;;5092979;28;20455;-72
2021/06/24 14:23:40;;;;;;;;;;;24.40;85.70;;;;;;5093705;28;19908;-71
2021/06/24 14:26:06;;;;;;;;;;;24.30;85.20;;;;;;5092934;28;19912;-72
2021/06/24 14:28:33;;;;;;;;;;;24.30;85.60;;;;;;5093660;28;19912;-71
2021/06/24 14:30:58;;;;;;;;;;;24.20;86.60;;;;;;5093436;28;19966;-71